Time;durP1;ratioP1;P1;durP2;ratioP2;P2;SDS_P1;SDS_P2;PMS_P1;PMS_P2;Temp;Humidity;BMP_temperature;BMP_pressure;BME280_temperature;BME280_humidity;BME280_pressure;Samples;Min_cycle;Max_cycle;Signal;HPM_P1;HPM_P2
2023/09/13 00:01:35;;;;;;;;;;;;;;;21.57;56.37;97130.42;598563;237;66855;-64
2023/09/13 00:04:02;;;;;;;;;;;;;;;21.56;56.36;97129.63;598557;237;64879;-64
2023/09/13 00:06:30;;;;;;;;;;;;;;;21.57;56.30;97131.22;598551;237;64823;-64
2023/09/13 00:08:57;;;;;;;;;;;;;;;21.57;56.38;97133.10;598509;237;65132;-64
2023/09/13 00:11:24;;;;;;;;;;;;;;;21.56;56.33;97134.98;598578;237;63633;-64
2023/09/13 00:13:52;;;;;;;;;;;;;;;21.56;56.29;97132.30;598539;237;64727;-64
2023/09/13 00:16:20;;;;;;;;;;;;;;;21.57;56.29;97133.10;598559;237;64969;-64
2023/09/13 00:18:47;;;;;;;;;;;;;;;21.56;56.26;97134.98;598554;237;65056;-64
2023/09/13 00:21:15;;;;;;;;;;;;;;;21.56;56.27;97139.53;598557;237;67040;-64
2023/09/13 00:23:42;;;;;;;;;;;;;;;21.57;56.23;97141.13;598586;237;66982;-63
2023/09/13 00:26:11;;;;;;;;;;;;;;;21.56;56.22;97139.53;598571;237;64884;-63
2023/09/13 00:28:39;;;;;;;;;;;;;;;21.56;56.27;97131.51;598531;237;66921;-63
2023/09/13 00:31:08;;;;;;;;;;;;;;;21.56;56.20;97134.19;598514;237;65632;-63
2023/09/13 00:33:36;;;;;;;;;;;;;;;21.56;56.21;97129.63;598413;237;65297;-63
2023/09/13 00:36:04;;;;;;;;;;;;;;;21.55;56.19;97127.22;598590;237;67523;-63
2023/09/13 00:38:31;;;;;;;;;;;;;;;21.55;56.16;97132.56;598535;237;64684;-63
2023/09/13 00:40:59;;;;;;;;;;;;;;;21.57;56.18;97135.77;598538;237;62776;-64
2023/09/13 00:43:26;;;;;;;;;;;;;;;21.56;56.14;97134.19;598528;237;67334;-63
2023/09/13 00:45:54;;;;;;;;;;;;;;;21.55;56.14;97127.22;598569;237;66852;-63
2023/09/13 00:48:23;;;;;;;;;;;;;;;21.55;56.14;97128.01;598601;237;62926;-63
2023/09/13 00:50:51;;;;;;;;;;;;;;;21.56;56.09;97124.28;598585;237;67196;-63
2023/09/13 00:53:19;;;;;;;;;;;;;;;21.55;56.09;97128.01;598545;237;64808;-63
2023/09/13 00:55:50;;;;;;;;;;;;;;;21.55;56.05;97128.01;598555;237;65239;-63
2023/09/13 00:58:18;;;;;;;;;;;;;;;21.55;56.03;97130.69;598495;237;67158;-63
2023/09/13 01:00:47;;;;;;;;;;;;;;;21.55;56.03;97127.22;598550;237;67100;-63
2023/09/13 01:03:15;;;;;;;;;;;;;;;21.54;56.02;97129.09;598531;237;62507;-63
2023/09/13 01:05:43;;;;;;;;;;;;;;;21.54;55.98;97125.63;598521;237;68127;-63
2023/09/13 01:08:11;;;;;;;;;;;;;;;21.54;56.02;97131.77;598535;237;67096;-63
2023/09/13 01:10:38;;;;;;;;;;;;;;;21.54;55.97;97126.42;598594;237;65239;-63
2023/09/13 01:13:06;;;;;;;;;;;;;;;21.54;55.92;97125.63;598535;237;67185;-64
2023/09/13 01:15:35;;;;;;;;;;;;;;;21.54;55.95;97126.42;598572;237;65391;-65
2023/09/13 01:18:06;;;;;;;;;;;;;;;21.54;55.90;97130.97;598517;237;64998;-64
2023/09/13 01:20:52;;;;;;;;;;;;;;;21.53;55.82;97124.83;598528;237;64790;-64
2023/09/13 01:23:24;;;;;;;;;;;;;;;21.54;55.83;97128.30;598525;237;67413;-64
2023/09/13 01:26:02;;;;;;;;;;;;;;;21.53;55.83;97122.16;598024;237;62691;-63
2023/09/13 01:28:40;;;;;;;;;;;;;;;21.53;55.80;97122.16;598500;237;64742;-63
2023/09/13 01:31:09;;;;;;;;;;;;;;;21.53;55.79;97121.36;597807;237;67250;-63
2023/09/13 01:33:38;;;;;;;;;;;;;;;21.52;55.74;97123.20;591178;238;62844;-63
2023/09/13 01:36:05;;;;;;;;;;;;;;;21.53;55.79;97121.36;595870;238;65614;-63
2023/09/13 01:38:33;;;;;;;;;;;;;;;21.50;55.74;97123.50;595888;238;67020;-63
2023/09/13 01:41:02;;;;;;;;;;;;;;;21.52;55.75;97125.88;595924;238;65062;-64
2023/09/13 01:43:31;;;;;;;;;;;;;;;21.52;55.74;97117.86;595627;238;66848;-63
2023/09/13 01:45:58;;;;;;;;;;;;;;;21.52;55.74;97117.06;595865;238;66916;-63
2023/09/13 01:48:26;;;;;;;;;;;;;;;21.51;55.76;97121.62;595842;238;65871;-63
2023/09/13 01:50:53;;;;;;;;;;;;;;;21.51;55.77;97118.95;595867;238;65839;-63
2023/09/13 01:53:21;;;;;;;;;;;;;;;21.53;55.79;97129.38;595927;238;67050;-63
2023/09/13 01:55:49;;;;;;;;;;;;;;;21.52;55.74;97122.41;595901;238;65711;-64
2023/09/13 01:58:17;;;;;;;;;;;;;;;21.53;55.75;97124.03;595897;238;64912;-63
2023/09/13 02:00:44;;;;;;;;;;;;;;;21.52;55.71;97122.41;595914;238;67052;-64
2023/09/13 02:03:12;;;;;;;;;;;;;;;21.52;55.66;97125.09;595901;238;63645;-64
2023/09/13 02:05:39;;;;;;;;;;;;;;;21.51;55.68;97129.64;595953;238;64734;-65
2023/09/13 02:08:07;;;;;;;;;;;;;;;21.52;55.64;97130.44;595881;238;67031;-65
2023/09/13 02:10:36;;;;;;;;;;;;;;;21.52;55.66;97127.77;595903;238;65859;-64
2023/09/13 02:13:04;;;;;;;;;;;;;;;21.52;55.64;97130.44;595865;238;64631;-64
2023/09/13 02:15:31;;;;;;;;;;;;;;;21.50;55.65;97126.17;595908;238;65160;-64
2023/09/13 02:17:59;;;;;;;;;;;;;;;21.51;55.60;97129.64;595949;238;64554;-64
2023/09/13 02:20:26;;;;;;;;;;;;;;;21.50;55.61;97120.83;595885;238;64878;-64
2023/09/13 02:22:54;;;;;;;;;;;;;;;21.50;55.60;97123.50;595583;238;64525;-65
2023/09/13 02:25:22;;;;;;;;;;;;;;;21.51;55.56;97118.95;593719;238;65836;-65
2023/09/13 02:27:49;;;;;;;;;;;;;;;21.50;55.52;97122.70;594074;238;64841;-65
2023/09/13 02:30:17;;;;;;;;;;;;;;;21.49;55.53;97121.88;593458;239;64637;-65
2023/09/13 02:32:45;;;;;;;;;;;;;;;21.49;55.52;97121.88;593895;237;62716;-65
2023/09/13 02:35:14;;;;;;;;;;;;;;;21.49;55.87;97127.22;593962;239;67361;-65
2023/09/13 02:37:41;;;;;;;;;;;;;;;21.49;56.22;97129.89;593977;239;68097;-65
2023/09/13 02:40:10;;;;;;;;;;;;;;;21.48;55.91;97125.63;594001;239;65005;-64
2023/09/13 02:42:37;;;;;;;;;;;;;;;21.49;55.93;97132.58;594003;239;64752;-64
2023/09/13 02:45:05;;;;;;;;;;;;;;;21.48;56.67;97130.98;594059;239;64594;-64
2023/09/13 02:47:32;;;;;;;;;;;;;;;21.48;56.75;97128.31;594003;239;65033;-64
2023/09/13 02:50:00;;;;;;;;;;;;;;;21.47;56.65;97124.05;593963;239;67293;-64
2023/09/13 02:52:31;;;;;;;;;;;;;;;21.47;56.71;97126.72;594004;239;67240;-63
2023/09/13 02:55:00;;;;;;;;;;;;;;;21.47;57.12;97126.72;594036;239;62729;-64
2023/09/13 02:57:28;;;;;;;;;;;;;;;21.47;56.91;97131.23;594080;239;66763;-64
2023/09/13 02:59:55;;;;;;;;;;;;;;;21.45;57.05;97128.85;594037;239;65455;-66
2023/09/13 03:02:23;;;;;;;;;;;;;;;21.45;57.05;97131.52;593959;236;65814;-64
2023/09/13 03:04:51;;;;;;;;;;;;;;;21.46;58.00;97132.33;594034;239;67711;-64
2023/09/13 03:07:20;;;;;;;;;;;;;;;21.45;57.28;97136.08;594019;239;65432;-64
2023/09/13 03:09:49;;;;;;;;;;;;;;;21.44;57.19;97137.95;594060;239;65763;-63
2023/09/13 03:12:16;;;;;;;;;;;;;;;21.44;57.03;97135.28;594017;239;64538;-64
2023/09/13 03:14:44;;;;;;;;;;;;;;;21.44;57.51;97137.95;594003;236;67593;-63
2023/09/13 03:17:13;;;;;;;;;;;;;;;21.45;57.47;97136.08;593992;236;64914;-64
2023/09/13 03:19:40;;;;;;;;;;;;;;;21.44;57.38;97143.30;594009;239;67367;-64
2023/09/13 03:22:08;;;;;;;;;;;;;;;21.44;56.94;97145.98;593981;239;67592;-63
2023/09/13 03:24:36;;;;;;;;;;;;;;;21.43;57.47;97138.22;594052;239;64475;-63
2023/09/13 03:27:04;;;;;;;;;;;;;;;21.43;57.84;97141.69;593953;239;64553;-64
2023/09/13 03:29:33;;;;;;;;;;;;;;;21.43;57.73;97144.36;593987;239;67704;-63
2023/09/13 03:32:01;;;;;;;;;;;;;;;21.44;57.20;97147.83;593928;239;63945;-64
2023/09/13 03:34:29;;;;;;;;;;;;;;;21.43;56.93;97146.23;593990;239;67413;-64
2023/09/13 03:36:56;;;;;;;;;;;;;;;21.43;57.35;97149.70;594057;239;67801;-63
2023/09/13 03:39:28;;;;;;;;;;;;;;;21.42;57.02;97161.48;593997;239;62928;-63
2023/09/13 03:41:53;;;;;;;;;;;;;;;21.42;57.27;97150.78;593898;238;67783;-63
2023/09/13 03:44:21;;;;;;;;;;;;;;;21.43;57.31;97151.58;593992;239;66672;-63
2023/09/13 03:46:49;;;;;;;;;;;;;;;21.42;57.77;97149.98;593985;236;62506;-63
2023/09/13 03:49:17;;;;;;;;;;;;;;;21.42;57.38;97148.11;594031;237;67030;-63
2023/09/13 03:51:44;;;;;;;;;;;;;;;21.41;57.07;97146.48;593962;239;66978;-63
2023/09/13 03:54:12;;;;;;;;;;;;;;;21.42;57.17;97158.81;593974;239;65137;-63
2023/09/13 03:56:40;;;;;;;;;;;;;;;21.42;56.73;97150.78;593952;239;67388;-63
2023/09/13 03:59:07;;;;;;;;;;;;;;;21.42;57.20;97158.02;594003;239;65887;-64
2023/09/13 04:01:35;;;;;;;;;;;;;;;21.41;57.53;97149.16;594043;239;62907;-64
2023/09/13 04:04:03;;;;;;;;;;;;;;;21.42;57.35;97160.69;593977;239;67112;-64
2023/09/13 04:06:31;;;;;;;;;;;;;;;21.40;57.18;97155.59;593999;239;68070;-64
2023/09/13 04:08:58;;;;;;;;;;;;;;;21.40;57.01;97155.59;593969;236;62875;-64
2023/09/13 04:11:28;;;;;;;;;;;;;;;21.40;57.43;97152.92;593963;239;67399;-64
2023/09/13 04:13:56;;;;;;;;;;;;;;;21.40;56.81;97152.92;593997;239;67196;-65
2023/09/13 04:16:24;;;;;;;;;;;;;;;21.40;57.08;97154.80;594012;239;63556;-65
2023/09/13 04:18:51;;;;;;;;;;;;;;;21.40;57.27;97152.92;593981;239;67593;-64
2023/09/13 04:21:19;;;;;;;;;;;;;;;21.40;57.22;97154.80;594008;239;66996;-64
2023/09/13 04:23:46;;;;;;;;;;;;;;;21.38;57.10;97144.36;593978;239;62912;-64
2023/09/13 04:26:20;;;;;;;;;;;;;;;21.40;57.29;97152.13;594002;239;67241;-64
2023/09/13 04:28:43;;;;;;;;;;;;;;;21.39;57.68;97153.17;593896;239;67512;-64
2023/09/13 04:31:11;;;;;;;;;;;;;;;21.40;57.23;97155.59;594964;237;63046;-64
2023/09/13 04:33:52;;;;;;;;;;;;;;;21.39;56.72;97154.00;597786;237;67734;-64
2023/09/13 04:36:21;;;;;;;;;;;;;;;21.39;57.24;97156.67;597826;235;44017;-65
2023/09/13 04:38:49;;;;;;;;;;;;;;;21.39;56.82;97155.85;597749;237;65128;-64
2023/09/13 04:41:17;;;;;;;;;;;;;;;21.38;57.48;97149.70;597799;237;65251;-64
2023/09/13 04:43:44;;;;;;;;;;;;;;;21.39;57.25;97156.67;597799;237;67162;-64
2023/09/13 04:46:12;;;;;;;;;;;;;;;21.38;57.25;97155.05;597728;237;65632;-63
2023/09/13 04:48:40;;;;;;;;;;;;;;;21.38;56.88;97160.41;597724;237;67360;-62
2023/09/13 04:51:09;;;;;;;;;;;;;;;21.38;56.75;97157.73;597716;237;67050;-63
2023/09/13 04:53:37;;;;;;;;;;;;;;;21.37;56.92;97153.47;597756;237;65740;-63
2023/09/13 04:56:05;;;;;;;;;;;;;;;21.38;57.05;97162.28;597791;237;67765;-63
2023/09/13 04:58:34;;;;;;;;;;;;;;;21.37;57.16;97158.81;597672;237;43169;-63
2023/09/13 05:01:02;;;;;;;;;;;;;;;21.37;57.32;97156.14;597734;237;62968;-65
2023/09/13 05:03:30;;;;;;;;;;;;;;;21.37;57.15;97148.12;597730;237;64958;-65
2023/09/13 05:05:57;;;;;;;;;;;;;;;21.38;57.37;97156.94;597762;237;65167;-65
2023/09/13 05:08:25;;;;;;;;;;;;;;;21.35;57.45;97150.22;597798;235;65240;-65
2023/09/13 05:10:54;;;;;;;;;;;;;;;21.37;57.27;97152.64;597682;237;67113;-65
2023/09/13 05:13:21;;;;;;;;;;;;;;;21.36;57.54;97149.17;597701;237;64685;-66
2023/09/13 05:15:49;;;;;;;;;;;;;;;21.36;57.01;97151.84;597734;237;65200;-65
2023/09/13 05:18:16;;;;;;;;;;;;;;;21.35;57.19;97144.88;597743;237;67031;-65
2023/09/13 05:20:44;;;;;;;;;;;;;;;21.36;57.28;97141.15;597806;237;67038;-65
2023/09/13 05:23:11;;;;;;;;;;;;;;;21.36;57.40;97157.19;597765;237;64984;-65
2023/09/13 05:25:45;;;;;;;;;;;;;;;21.35;57.82;97155.56;597773;237;66783;-65
2023/09/13 05:28:13;;;;;;;;;;;;;;;21.35;57.76;97155.56;597809;237;67206;-65
2023/09/13 05:30:42;;;;;;;;;;;;;;;21.35;57.92;97147.55;597713;237;65143;-65
2023/09/13 05:33:10;;;;;;;;;;;;;;;21.35;57.68;97154.77;597765;237;67578;-65
2023/09/13 05:35:38;;;;;;;;;;;;;;;21.35;57.27;97154.77;597840;237;65020;-65
2023/09/13 05:38:05;;;;;;;;;;;;;;;21.34;57.33;97156.65;597800;237;64659;-65
2023/09/13 05:40:33;;;;;;;;;;;;;;;21.35;57.71;97149.42;597745;235;64578;-65
2023/09/13 05:43:00;;;;;;;;;;;;;;;21.34;58.40;97153.98;597786;237;64860;-65
2023/09/13 05:45:28;;;;;;;;;;;;;;;21.34;57.60;97156.65;597802;237;65482;-67
2023/09/13 05:47:58;;;;;;;;;;;;;;;21.34;57.84;97156.65;597840;237;67419;-65
2023/09/13 05:50:24;;;;;;;;;;;;;;;21.34;57.88;97155.85;597737;235;66943;-65
2023/09/13 05:52:52;;;;;;;;;;;;;;;21.34;58.14;97155.85;597778;237;64933;-65
2023/09/13 05:55:19;;;;;;;;;;;;;;;21.34;58.37;97156.65;597735;237;68018;-65
2023/09/13 05:57:52;;;;;;;;;;;;;;;21.34;57.53;97153.98;597725;237;66845;-65
2023/09/13 06:00:20;;;;;;;;;;;;;;;21.34;57.62;97153.98;597825;237;64899;-66
2023/09/13 06:02:48;;;;;;;;;;;;;;;21.33;57.60;97152.36;597115;237;67075;-66
2023/09/13 06:05:15;;;;;;;;;;;;;;;21.34;59.39;97156.65;597752;237;66767;-66
2023/09/13 06:07:43;;;;;;;;;;;;;;;21.34;55.74;97153.98;597717;237;62743;-67
2023/09/13 06:10:11;;;;;;;;;;;;;;;21.35;57.75;97155.56;597631;237;64639;-65
2023/09/13 06:12:38;;;;;;;;;;;;;;;21.34;56.96;97151.30;597658;237;66723;-66
2023/09/13 06:15:07;;;;;;;;;;;;;;;21.35;57.13;97160.12;597831;237;64851;-64
2023/09/13 06:17:36;;;;;;;;;;;;;;;21.34;57.30;97153.98;597735;237;64837;-65
2023/09/13 06:20:04;;;;;;;;;;;;;;;21.33;59.28;97149.68;597620;235;67198;-65
2023/09/13 06:22:35;;;;;;;;;;;;;;;21.33;55.95;97156.91;598002;236;65103;-64
2023/09/13 06:25:03;;;;;;;;;;;;;;;21.34;55.99;97143.28;597668;237;67983;-65
2023/09/13 06:27:30;;;;;;;;;;;;;;;21.37;56.06;97152.64;597769;237;66875;-65
2023/09/13 06:29:58;;;;;;;;;;;;;;;21.36;56.14;97149.17;597709;237;62698;-65
2023/09/13 06:32:26;;;;;;;;;;;;;;;21.37;56.51;97141.94;598292;237;64867;-66
2023/09/13 06:35:00;;;;;;;;;;;;;;;21.37;57.10;97150.80;598518;237;66901;-65
2023/09/13 06:37:25;;;;;;;;;;;;;;;21.38;57.54;97155.05;598267;237;65040;-64
2023/09/13 06:39:54;;;;;;;;;;;;;;;21.39;58.54;97156.67;598542;237;64804;-64
2023/09/13 06:42:21;;;;;;;;;;;;;;;21.37;58.67;97142.77;598518;237;65147;-64
2023/09/13 06:44:49;;;;;;;;;;;;;;;21.38;58.48;97149.70;598459;237;62897;-64
2023/09/13 06:47:16;;;;;;;;;;;;;;;21.38;58.36;97144.36;598467;237;65225;-65
2023/09/13 06:49:44;;;;;;;;;;;;;;;21.38;58.11;97144.36;598487;237;64627;-64
2023/09/13 06:52:11;;;;;;;;;;;;;;;21.39;58.70;97135.29;598486;237;65007;-64
2023/09/13 06:54:39;;;;;;;;;;;;;;;21.40;59.32;97141.43;598566;237;67221;-64
2023/09/13 06:57:08;;;;;;;;;;;;;;;21.40;58.08;97146.78;598539;237;66976;-64
2023/09/13 06:59:35;;;;;;;;;;;;;;;21.41;58.28;97143.02;598443;237;62802;-66
2023/09/13 07:02:03;;;;;;;;;;;;;;;21.41;57.94;97137.67;598447;237;64448;-64
2023/09/13 07:04:30;;;;;;;;;;;;;;;21.41;57.71;97133.13;598600;237;64783;-65
2023/09/13 07:06:58;;;;;;;;;;;;;;;21.42;57.67;97132.07;598461;237;63041;-65
2023/09/13 07:09:26;;;;;;;;;;;;;;;21.42;57.33;97134.75;598522;237;66761;-65
2023/09/13 07:11:53;;;;;;;;;;;;;;;21.43;57.12;97130.20;598510;237;64695;-65
2023/09/13 07:14:21;;;;;;;;;;;;;;;21.43;57.18;97125.64;598428;237;65246;-65
2023/09/13 07:16:49;;;;;;;;;;;;;;;21.45;57.65;97128.06;598573;237;66769;-65
2023/09/13 07:19:16;;;;;;;;;;;;;;;21.44;57.95;97131.78;598542;237;66785;-65
2023/09/13 07:21:44;;;;;;;;;;;;;;;21.45;57.66;97122.71;598426;237;62958;-66
2023/09/13 07:24:12;;;;;;;;;;;;;;;21.45;57.48;97126.18;598511;237;64523;-65
2023/09/13 07:26:40;;;;;;;;;;;;;;;21.45;57.42;97128.85;598480;237;66851;-63
2023/09/13 07:29:07;;;;;;;;;;;;;;;21.50;57.70;97123.50;598531;237;64976;-63
2023/09/13 07:31:35;;;;;;;;;;;;;;;21.49;57.31;97123.75;598436;237;67403;-64
2023/09/13 07:34:02;;;;;;;;;;;;;;;21.48;58.29;97122.16;598450;237;67234;-64
2023/09/13 07:36:30;;;;;;;;;;;;;;;21.48;58.65;97130.19;598501;237;64864;-64
2023/09/13 07:39:00;;;;;;;;;;;;;;;21.48;58.74;97128.31;598509;237;64659;-65
2023/09/13 07:41:27;;;;;;;;;;;;;;;21.47;59.02;97129.39;598442;237;64592;-63
2023/09/13 07:43:54;;;;;;;;;;;;;;;21.48;58.95;97127.52;598518;237;64602;-64
2023/09/13 07:46:23;;;;;;;;;;;;;;;21.48;59.00;97122.95;598504;237;67083;-64
2023/09/13 07:48:50;;;;;;;;;;;;;;;21.48;59.03;97127.52;598440;237;64905;-65
2023/09/13 07:51:18;;;;;;;;;;;;;;;21.49;59.09;97129.10;598486;237;65011;-65
2023/09/13 07:53:46;;;;;;;;;;;;;;;21.49;59.15;97127.22;598394;237;64656;-65
2023/09/13 07:56:14;;;;;;;;;;;;;;;21.49;59.18;97121.88;598430;237;64529;-64
2023/09/13 07:58:42;;;;;;;;;;;;;;;21.50;59.26;97117.35;598461;237;65164;-64
2023/09/13 08:01:10;;;;;;;;;;;;;;;21.50;59.25;97117.35;598456;237;65316;-60
2023/09/13 08:03:37;;;;;;;;;;;;;;;21.53;59.00;97116.02;598441;237;67003;-61
2023/09/13 08:06:05;;;;;;;;;;;;;;;21.54;59.21;97114.93;598504;237;64945;-60
2023/09/13 08:08:33;;;;;;;;;;;;;;;21.55;59.36;97116.52;598512;237;67041;-60
2023/09/13 08:11:00;;;;;;;;;;;;;;;21.57;59.45;97112.50;598477;237;64953;-61
2023/09/13 08:13:28;;;;;;;;;;;;;;;21.58;60.08;97113.30;598516;237;62730;-60
2023/09/13 08:15:55;;;;;;;;;;;;;;;21.58;59.95;97111.45;598547;237;65531;-60
2023/09/13 08:18:23;;;;;;;;;;;;;;;21.59;60.67;97112.24;598480;237;64494;-60
2023/09/13 08:20:51;;;;;;;;;;;;;;;21.61;61.24;97107.43;598516;237;62840;-62
2023/09/13 08:23:18;;;;;;;;;;;;;;;21.61;61.36;97104.76;598497;237;66799;-63
2023/09/13 08:25:46;;;;;;;;;;;;;;;21.58;59.19;97099.92;598455;237;66797;-62
2023/09/13 08:28:13;;;;;;;;;;;;;;;21.59;58.75;97101.55;598543;237;63082;-62
2023/09/13 08:30:41;;;;;;;;;;;;;;;21.60;59.21;97095.11;598238;237;64610;-59
2023/09/13 08:33:11;;;;;;;;;;;;;;;21.61;59.32;97099.41;595882;238;64642;-62
2023/09/13 08:35:38;;;;;;;;;;;;;;;21.59;59.84;97090.84;595851;238;63037;-61
2023/09/13 08:38:06;;;;;;;;;;;;;;;21.58;59.97;97097.25;595832;238;66960;-61
2023/09/13 08:40:34;;;;;;;;;;;;;;;21.60;59.27;97092.44;595862;238;66374;-67
2023/09/13 08:43:03;;;;;;;;;;;;;;;21.58;59.75;97090.05;595841;238;65094;-67
2023/09/13 08:45:31;;;;;;;;;;;;;;;21.58;59.36;97084.70;595753;238;66925;-67
2023/09/13 08:48:01;;;;;;;;;;;;;;;21.59;59.07;97085.50;595803;238;67300;-68
2023/09/13 08:50:30;;;;;;;;;;;;;;;21.61;58.68;97088.71;595841;238;64988;-67
2023/09/13 08:52:59;;;;;;;;;;;;;;;21.62;58.33;97084.95;595795;238;64535;-67
2023/09/13 08:55:27;;;;;;;;;;;;;;;21.63;58.61;97081.20;595843;238;66687;-60
2023/09/13 08:57:58;;;;;;;;;;;;;;;21.62;58.90;97080.40;595835;238;66470;-60
2023/09/13 09:00:26;;;;;;;;;;;;;;;21.62;58.70;97083.08;595790;238;66740;-60
2023/09/13 09:02:55;;;;;;;;;;;;;;;21.63;58.21;97075.84;595773;238;66951;-60
2023/09/13 09:05:24;;;;;;;;;;;;;;;21.65;57.89;97073.70;595844;238;65783;-60
2023/09/13 09:07:52;;;;;;;;;;;;;;;21.66;57.73;97064.59;595747;238;66597;-60
2023/09/13 09:10:20;;;;;;;;;;;;;;;21.66;57.59;97067.27;595740;238;64678;-60
2023/09/13 09:12:49;;;;;;;;;;;;;;;21.66;57.31;97060.07;595792;238;62731;-61
2023/09/13 09:15:18;;;;;;;;;;;;;;;21.72;56.94;97064.31;595764;238;68221;-61
2023/09/13 09:17:47;;;;;;;;;;;;;;;21.70;57.25;97065.66;595822;238;64471;-62
2023/09/13 09:20:15;;;;;;;;;;;;;;;21.68;57.67;97059.78;595818;238;63657;-62
2023/09/13 09:22:42;;;;;;;;;;;;;;;21.67;58.50;97060.87;595776;238;66822;-63
2023/09/13 09:25:11;;;;;;;;;;;;;;;21.65;58.50;97063.80;595860;238;66864;-62
2023/09/13 09:27:42;;;;;;;;;;;;;;;21.65;58.25;97058.45;595803;238;64926;-62
2023/09/13 09:30:14;;;;;;;;;;;;;;;21.65;58.27;97063.80;595862;238;66764;-62
2023/09/13 09:32:39;;;;;;;;;;;;;;;21.66;58.22;97067.27;598079;237;64706;-61
2023/09/13 09:35:07;;;;;;;;;;;;;;;21.66;58.13;97064.59;598453;237;64880;-62
2023/09/13 09:37:36;;;;;;;;;;;;;;;21.65;58.18;97057.66;598433;237;66909;-62
2023/09/13 09:40:05;;;;;;;;;;;;;;;21.65;58.08;97053.10;598538;237;66801;-62
2023/09/13 09:42:34;;;;;;;;;;;;;;;21.65;57.82;97058.45;598230;237;65187;-61
2023/09/13 09:45:01;;;;;;;;;;;;;;;21.66;57.88;97056.58;598395;235;66839;-62
2023/09/13 09:47:29;;;;;;;;;;;;;;;21.66;58.50;97056.58;598517;237;64685;-61
2023/09/13 09:49:57;;;;;;;;;;;;;;;21.65;58.94;97050.43;598435;237;63893;-61
2023/09/13 09:52:24;;;;;;;;;;;;;;;21.64;59.13;97056.86;598474;237;65405;-62
2023/09/13 09:54:52;;;;;;;;;;;;;;;21.64;59.21;97048.84;598512;237;66328;-62
2023/09/13 09:57:23;;;;;;;;;;;;;;;21.64;59.35;97048.05;598462;237;62786;-62
2023/09/13 09:59:50;;;;;;;;;;;;;;;21.63;59.57;97049.89;598457;237;64524;-61
2023/09/13 10:02:19;;;;;;;;;;;;;;;21.63;59.61;97049.10;598439;237;64949;-60
2023/09/13 10:04:50;;;;;;;;;;;;;;;21.64;59.61;97045.38;598234;237;65233;-60
2023/09/13 10:07:18;;;;;;;;;;;;;;;21.64;59.52;97048.05;598517;237;66864;-61
2023/09/13 10:09:47;;;;;;;;;;;;;;;21.63;59.53;97043.75;598451;237;66872;-61
2023/09/13 10:12:15;;;;;;;;;;;;;;;21.63;59.53;97043.75;598431;237;62707;-60
2023/09/13 10:14:44;;;;;;;;;;;;;;;21.63;59.50;97038.41;598534;237;66975;-61
2023/09/13 10:17:11;;;;;;;;;;;;;;;21.64;59.55;97050.72;598542;237;64726;-61
2023/09/13 10:19:40;;;;;;;;;;;;;;;21.65;59.53;97036.27;598450;237;64910;-60
2023/09/13 10:22:08;;;;;;;;;;;;;;;21.64;59.53;97037.34;598542;237;62799;-61
2023/09/13 10:24:37;;;;;;;;;;;;;;;21.64;59.48;97040.02;598477;237;64734;-61
2023/09/13 10:27:07;;;;;;;;;;;;;;;21.64;59.34;97037.34;598453;237;62707;-60
2023/09/13 10:29:42;;;;;;;;;;;;;;;21.64;59.43;97040.02;598316;237;67229;-60
2023/09/13 10:32:11;;;;;;;;;;;;;;;21.64;59.71;97034.67;598409;237;61557;-61
2023/09/13 10:34:40;;;;;;;;;;;;;;;21.64;59.65;97037.34;598530;237;64724;-61
2023/09/13 10:37:15;;;;;;;;;;;;;;;21.64;59.79;97034.67;598542;237;65368;-61
2023/09/13 10:39:50;;;;;;;;;;;;;;;21.65;59.80;97041.61;598279;237;66791;-61
2023/09/13 10:42:18;;;;;;;;;;;;;;;21.65;59.60;97045.08;598472;237;62805;-60
2023/09/13 10:44:47;;;;;;;;;;;;;;;21.64;59.77;97038.14;598507;237;67019;-61
2023/09/13 10:47:15;;;;;;;;;;;;;;;21.65;59.88;97025.56;598451;237;66874;-61
2023/09/13 10:49:43;;;;;;;;;;;;;;;21.64;59.75;97040.81;598513;237;63875;-61
2023/09/13 10:52:11;;;;;;;;;;;;;;;21.63;59.63;97031.17;598483;237;64557;-61
2023/09/13 10:54:40;;;;;;;;;;;;;;;21.64;59.58;97026.65;598442;237;64739;-61
2023/09/13 10:57:09;;;;;;;;;;;;;;;21.64;59.64;97027.45;598504;237;65118;-61
2023/09/13 10:59:37;;;;;;;;;;;;;;;21.65;59.68;97020.22;598428;237;64503;-60
2023/09/13 11:02:06;;;;;;;;;;;;;;;21.64;59.68;97029.33;598399;237;64533;-61
2023/09/13 11:04:34;;;;;;;;;;;;;;;21.65;59.65;97030.91;598481;237;65010;-61
2023/09/13 11:07:04;;;;;;;;;;;;;;;21.65;59.63;97022.89;598519;237;67442;-60
2023/09/13 11:09:31;;;;;;;;;;;;;;;21.65;59.73;97025.56;598494;237;66656;-61
2023/09/13 11:11:59;;;;;;;;;;;;;;;21.65;59.67;97023.69;598531;237;63856;-61
2023/09/13 11:14:31;;;;;;;;;;;;;;;21.65;59.67;97025.56;598506;237;64407;-61
2023/09/13 11:17:12;;;;;;;;;;;;;;;21.65;59.63;97022.89;598058;237;64819;-62
2023/09/13 11:19:40;;;;;;;;;;;;;;;21.65;59.59;97018.34;597163;237;66058;-61
2023/09/13 11:22:08;;;;;;;;;;;;;;;21.64;59.54;97016.75;598459;237;66587;-62
2023/09/13 11:24:36;;;;;;;;;;;;;;;21.65;59.48;97020.22;598546;237;64319;-64
2023/09/13 11:27:17;;;;;;;;;;;;;;;21.65;59.54;97021.01;598488;237;63053;-64
2023/09/13 11:29:53;;;;;;;;;;;;;;;21.65;59.54;97012.98;597629;237;64212;-64
2023/09/13 11:32:19;;;;;;;;;;;;;;;21.66;59.49;97013.78;591705;239;64695;-65
2023/09/13 11:34:48;;;;;;;;;;;;;;;21.67;58.81;97005.50;591349;239;65231;-64
2023/09/13 11:37:16;;;;;;;;;;;;;;;21.69;59.01;97005.23;591564;239;66555;-64
2023/09/13 11:39:45;;;;;;;;;;;;;;;21.68;59.10;97004.41;591930;239;64728;-63
2023/09/13 11:42:13;;;;;;;;;;;;;;;21.67;59.33;97008.17;591732;239;63846;-63
2023/09/13 11:44:40;;;;;;;;;;;;;;;21.68;59.47;96999.06;591926;239;67011;-63
2023/09/13 11:47:11;;;;;;;;;;;;;;;21.68;59.36;96990.24;591896;239;66812;-64
2023/09/13 11:49:41;;;;;;;;;;;;;;;21.67;59.41;96996.68;591937;239;65114;-65
2023/09/13 11:52:09;;;;;;;;;;;;;;;21.68;59.35;96998.27;591903;239;66816;-64
2023/09/13 11:54:38;;;;;;;;;;;;;;;21.67;59.51;96986.77;591955;239;65414;-64
2023/09/13 11:57:06;;;;;;;;;;;;;;;21.67;59.56;96986.77;591438;239;65752;-64
2023/09/13 11:59:34;;;;;;;;;;;;;;;21.68;59.57;96982.22;591987;239;67682;-65
2023/09/13 12:02:03;;;;;;;;;;;;;;;21.68;59.58;96983.02;591870;239;66655;-63
2023/09/13 12:04:30;;;;;;;;;;;;;;;21.70;59.50;96998.80;591921;239;63801;-63
2023/09/13 12:06:58;;;;;;;;;;;;;;;21.68;59.65;96984.89;591904;239;66579;-63
2023/09/13 12:09:25;;;;;;;;;;;;;;;21.70;59.76;96990.77;591990;239;64488;-63
2023/09/13 12:11:55;;;;;;;;;;;;;;;21.70;59.64;96988.89;591935;239;62993;-64
2023/09/13 12:14:23;;;;;;;;;;;;;;;21.71;59.67;96987.02;591924;239;64766;-62
2023/09/13 12:16:51;;;;;;;;;;;;;;;21.72;59.57;96988.63;591969;239;64348;-63
2023/09/13 12:19:19;;;;;;;;;;;;;;;21.72;59.55;96986.75;591941;239;65086;-64
2023/09/13 12:21:47;;;;;;;;;;;;;;;21.73;59.67;96976.84;591932;239;66876;-66
2023/09/13 12:24:21;;;;;;;;;;;;;;;21.72;59.64;96989.42;592051;239;66358;-64
2023/09/13 12:26:52;;;;;;;;;;;;;;;21.73;59.66;96977.64;591855;239;64949;-64
2023/09/13 12:29:23;;;;;;;;;;;;;;;21.73;59.41;96977.64;591979;239;66942;-64
2023/09/13 12:31:55;;;;;;;;;;;;;;;21.75;59.51;96979.26;594489;237;66978;-64
2023/09/13 12:34:20;;;;;;;;;;;;;;;21.74;59.67;96973.08;598016;237;66403;-64
2023/09/13 12:36:47;;;;;;;;;;;;;;;21.74;59.68;96978.43;598303;237;66719;-66
2023/09/13 12:39:15;;;;;;;;;;;;;;;21.73;59.67;96977.64;598299;237;66698;-67
2023/09/13 12:41:43;;;;;;;;;;;;;;;21.73;59.68;96972.29;597991;237;61226;-63
2023/09/13 12:44:11;;;;;;;;;;;;;;;21.73;59.68;96972.29;597883;237;66810;-66
2023/09/13 12:46:40;;;;;;;;;;;;;;;21.73;59.53;96964.27;598094;237;64441;-67
2023/09/13 12:49:07;;;;;;;;;;;;;;;21.74;59.74;96965.06;596929;234;65192;-64
2023/09/13 12:51:36;;;;;;;;;;;;;;;21.75;59.87;96971.23;597910;234;64356;-65
2023/09/13 12:54:08;;;;;;;;;;;;;;;21.75;59.58;96966.67;598217;237;66941;-66